sensor_id;sensor_type;location;lat;lon;timestamp;P1;durP1;ratioP1;P2;durP2;ratioP2
6757;SDS011;3416;53.074;8.822;2023-09-19T00:00:55;8.73;;;4.63;;
6757;SDS011;3416;53.074;8.822;2023-09-19T00:03:25;9.90;;;4.33;;
6757;SDS011;3416;53.074;8.822;2023-09-19T00:05:54;6.73;;;4.53;;
6757;SDS011;3416;53.074;8.822;2023-09-19T00:08:23;5.28;;;4.35;;
6757;SDS011;3416;53.074;8.822;2023-09-19T00:10:50;7.00;;;4.53;;
6757;SDS011;3416;53.074;8.822;2023-09-19T00:13:20;7.90;;;4.30;;
6757;SDS011;3416;53.074;8.822;2023-09-19T00:15:49;6.27;;;4.20;;
6757;SDS011;3416;53.074;8.822;2023-09-19T00:18:16;5.47;;;4.47;;
6757;SDS011;3416;53.074;8.822;2023-09-19T00:20:44;6.90;;;3.90;;
6757;SDS011;3416;53.074;8.822;2023-09-19T00:23:15;9.07;;;3.47;;
6757;SDS011;3416;53.074;8.822;2023-09-19T00:25:42;5.65;;;3.85;;
6757;SDS011;3416;53.074;8.822;2023-09-19T00:28:09;8.47;;;4.10;;
6757;SDS011;3416;53.074;8.822;2023-09-19T00:30:36;5.87;;;3.93;;
6757;SDS011;3416;53.074;8.822;2023-09-19T00:33:04;12.60;;;4.40;;
6757;SDS011;3416;53.074;8.822;2023-09-19T00:35:32;9.80;;;4.50;;
6757;SDS011;3416;53.074;8.822;2023-09-19T00:38:00;9.60;;;4.43;;
6757;SDS011;3416;53.074;8.822;2023-09-19T00:40:29;7.63;;;4.10;;
6757;SDS011;3416;53.074;8.822;2023-09-19T00:42:58;6.33;;;3.70;;
6757;SDS011;3416;53.074;8.822;2023-09-19T00:45:26;5.73;;;3.73;;
6757;SDS011;3416;53.074;8.822;2023-09-19T00:47:53;7.20;;;4.00;;
6757;SDS011;3416;53.074;8.822;2023-09-19T00:50:22;8.30;;;3.30;;
6757;SDS011;3416;53.074;8.822;2023-09-19T00:52:53;8.03;;;3.70;;
6757;SDS011;3416;53.074;8.822;2023-09-19T00:55:26;5.80;;;3.90;;
6757;SDS011;3416;53.074;8.822;2023-09-19T00:57:57;8.27;;;4.35;;
6757;SDS011;3416;53.074;8.822;2023-09-19T01:00:24;5.37;;;3.50;;
6757;SDS011;3416;53.074;8.822;2023-09-19T01:02:52;5.83;;;4.20;;
6757;SDS011;3416;53.074;8.822;2023-09-19T01:05:20;11.67;;;4.87;;
6757;SDS011;3416;53.074;8.822;2023-09-19T01:07:49;6.37;;;3.70;;
6757;SDS011;3416;53.074;8.822;2023-09-19T01:10:18;8.03;;;4.00;;
6757;SDS011;3416;53.074;8.822;2023-09-19T01:12:51;8.52;;;3.92;;
6757;SDS011;3416;53.074;8.822;2023-09-19T01:15:25;7.17;;;3.03;;
6757;SDS011;3416;53.074;8.822;2023-09-19T01:18:00;8.10;;;4.90;;
6757;SDS011;3416;53.074;8.822;2023-09-19T01:20:37;5.72;;;4.20;;
6757;SDS011;3416;53.074;8.822;2023-09-19T01:23:11;8.65;;;4.20;;
6757;SDS011;3416;53.074;8.822;2023-09-19T01:26:03;6.77;;;3.50;;
6757;SDS011;3416;53.074;8.822;2023-09-19T01:28:53;3.67;;;3.17;;
6757;SDS011;3416;53.074;8.822;2023-09-19T01:31:31;4.00;;;3.00;;
6757;SDS011;3416;53.074;8.822;2023-09-19T01:34:01;5.85;;;3.28;;
6757;SDS011;3416;53.074;8.822;2023-09-19T01:36:30;7.72;;;2.75;;
6757;SDS011;3416;53.074;8.822;2023-09-19T01:39:00;3.45;;;2.33;;
6757;SDS011;3416;53.074;8.822;2023-09-19T01:41:38;5.43;;;2.30;;
6757;SDS011;3416;53.074;8.822;2023-09-19T01:44:15;6.55;;;2.53;;
6757;SDS011;3416;53.074;8.822;2023-09-19T01:46:49;3.08;;;1.70;;
6757;SDS011;3416;53.074;8.822;2023-09-19T01:49:21;2.78;;;1.65;;
6757;SDS011;3416;53.074;8.822;2023-09-19T01:51:56;2.85;;;1.67;;
6757;SDS011;3416;53.074;8.822;2023-09-19T01:54:43;3.30;;;2.00;;
6757;SDS011;3416;53.074;8.822;2023-09-19T01:57:26;2.22;;;1.95;;
6757;SDS011;3416;53.074;8.822;2023-09-19T01:59:59;3.28;;;1.80;;
6757;SDS011;3416;53.074;8.822;2023-09-19T02:02:33;2.88;;;1.50;;
6757;SDS011;3416;53.074;8.822;2023-09-19T02:05:02;2.63;;;1.42;;
6757;SDS011;3416;53.074;8.822;2023-09-19T02:07:30;7.20;;;2.78;;
6757;SDS011;3416;53.074;8.822;2023-09-19T02:09:57;2.38;;;1.60;;
6757;SDS011;3416;53.074;8.822;2023-09-19T02:12:25;1.80;;;1.40;;
6757;SDS011;3416;53.074;8.822;2023-09-19T02:14:52;3.50;;;2.00;;
6757;SDS011;3416;53.074;8.822;2023-09-19T02:17:19;6.20;;;1.58;;
6757;SDS011;3416;53.074;8.822;2023-09-19T02:19:47;2.20;;;1.33;;
6757;SDS011;3416;53.074;8.822;2023-09-19T02:22:14;2.33;;;1.55;;
6757;SDS011;3416;53.074;8.822;2023-09-19T02:24:41;2.35;;;1.13;;
6757;SDS011;3416;53.074;8.822;2023-09-19T02:27:10;3.15;;;1.52;;
6757;SDS011;3416;53.074;8.822;2023-09-19T02:29:41;6.10;;;1.85;;
6757;SDS011;3416;53.074;8.822;2023-09-19T02:32:07;4.15;;;1.75;;
6757;SDS011;3416;53.074;8.822;2023-09-19T02:34:35;3.22;;;1.60;;
6757;SDS011;3416;53.074;8.822;2023-09-19T02:37:05;4.00;;;1.88;;
6757;SDS011;3416;53.074;8.822;2023-09-19T02:39:33;1.85;;;1.50;;
6757;SDS011;3416;53.074;8.822;2023-09-19T02:42:00;5.82;;;2.20;;
6757;SDS011;3416;53.074;8.822;2023-09-19T02:44:29;6.45;;;1.70;;
6757;SDS011;3416;53.074;8.822;2023-09-19T02:46:56;5.70;;;1.85;;
6757;SDS011;3416;53.074;8.822;2023-09-19T02:49:23;3.70;;;2.10;;
6757;SDS011;3416;53.074;8.822;2023-09-19T02:51:50;2.47;;;1.55;;
6757;SDS011;3416;53.074;8.822;2023-09-19T02:54:19;4.40;;;1.73;;
6757;SDS011;3416;53.074;8.822;2023-09-19T02:56:47;4.30;;;2.13;;
6757;SDS011;3416;53.074;8.822;2023-09-19T02:59:15;4.32;;;1.63;;
6757;SDS011;3416;53.074;8.822;2023-09-19T03:01:44;6.75;;;2.13;;
6757;SDS011;3416;53.074;8.822;2023-09-19T03:04:13;4.32;;;1.75;;
6757;SDS011;3416;53.074;8.822;2023-09-19T03:06:44;3.47;;;1.77;;
6757;SDS011;3416;53.074;8.822;2023-09-19T03:09:14;8.93;;;2.08;;
6757;SDS011;3416;53.074;8.822;2023-09-19T03:11:42;6.55;;;1.85;;
6757;SDS011;3416;53.074;8.822;2023-09-19T03:14:12;4.07;;;2.15;;
6757;SDS011;3416;53.074;8.822;2023-09-19T03:16:40;8.13;;;2.22;;
6757;SDS011;3416;53.074;8.822;2023-09-19T03:19:07;5.25;;;2.13;;
6757;SDS011;3416;53.074;8.822;2023-09-19T03:21:35;6.25;;;2.55;;
6757;SDS011;3416;53.074;8.822;2023-09-19T03:24:04;8.07;;;2.70;;
6757;SDS011;3416;53.074;8.822;2023-09-19T03:26:31;4.95;;;2.33;;
6757;SDS011;3416;53.074;8.822;2023-09-19T03:29:00;5.20;;;2.00;;
6757;SDS011;3416;53.074;8.822;2023-09-19T03:31:31;4.47;;;2.10;;
6757;SDS011;3416;53.074;8.822;2023-09-19T03:33:58;3.42;;;1.95;;
6757;SDS011;3416;53.074;8.822;2023-09-19T03:36:25;4.07;;;2.75;;
6757;SDS011;3416;53.074;8.822;2023-09-19T03:38:54;3.95;;;2.42;;
6757;SDS011;3416;53.074;8.822;2023-09-19T03:41:21;5.63;;;2.25;;
6757;SDS011;3416;53.074;8.822;2023-09-19T03:43:49;5.90;;;1.98;;
6757;SDS011;3416;53.074;8.822;2023-09-19T03:46:17;6.25;;;2.75;;
6757;SDS011;3416;53.074;8.822;2023-09-19T03:48:44;4.13;;;2.22;;
6757;SDS011;3416;53.074;8.822;2023-09-19T03:51:11;7.90;;;3.85;;
6757;SDS011;3416;53.074;8.822;2023-09-19T03:53:39;8.38;;;3.20;;
6757;SDS011;3416;53.074;8.822;2023-09-19T03:56:06;4.95;;;2.88;;
6757;SDS011;3416;53.074;8.822;2023-09-19T03:58:33;6.28;;;2.10;;
6757;SDS011;3416;53.074;8.822;2023-09-19T04:01:04;13.10;;;2.50;;
6757;SDS011;3416;53.074;8.822;2023-09-19T04:03:35;4.90;;;2.30;;
6757;SDS011;3416;53.074;8.822;2023-09-19T04:06:11;3.28;;;2.28;;
6757;SDS011;3416;53.074;8.822;2023-09-19T04:08:39;6.75;;;2.60;;
6757;SDS011;3416;53.074;8.822;2023-09-19T04:11:06;4.63;;;2.78;;
6757;SDS011;3416;53.074;8.822;2023-09-19T04:13:32;11.90;;;3.75;;
6757;SDS011;3416;53.074;8.822;2023-09-19T04:15:59;8.70;;;2.97;;
6757;SDS011;3416;53.074;8.822;2023-09-19T04:18:26;6.63;;;2.58;;
6757;SDS011;3416;53.074;8.822;2023-09-19T04:20:57;7.05;;;3.22;;
6757;SDS011;3416;53.074;8.822;2023-09-19T04:23:24;6.45;;;2.63;;
6757;SDS011;3416;53.074;8.822;2023-09-19T04:25:53;7.57;;;2.45;;
6757;SDS011;3416;53.074;8.822;2023-09-19T04:28:21;8.13;;;2.72;;
6757;SDS011;3416;53.074;8.822;2023-09-19T04:30:48;5.95;;;4.10;;
6757;SDS011;3416;53.074;8.822;2023-09-19T04:33:16;7.13;;;3.35;;
6757;SDS011;3416;53.074;8.822;2023-09-19T04:35:43;5.80;;;2.80;;
6757;SDS011;3416;53.074;8.822;2023-09-19T04:38:12;5.57;;;3.03;;
6757;SDS011;3416;53.074;8.822;2023-09-19T04:40:40;7.45;;;3.63;;
6757;SDS011;3416;53.074;8.822;2023-09-19T04:43:07;6.63;;;2.55;;
6757;SDS011;3416;53.074;8.822;2023-09-19T04:45:34;5.50;;;2.83;;
6757;SDS011;3416;53.074;8.822;2023-09-19T04:48:01;8.70;;;2.97;;
6757;SDS011;3416;53.074;8.822;2023-09-19T04:50:29;7.57;;;2.70;;
6757;SDS011;3416;53.074;8.822;2023-09-19T04:52:56;5.82;;;3.33;;
6757;SDS011;3416;53.074;8.822;2023-09-19T04:55:24;11.55;;;3.80;;
6757;SDS011;3416;53.074;8.822;2023-09-19T04:57:51;7.90;;;3.17;;
6757;SDS011;3416;53.074;8.822;2023-09-19T05:00:19;8.38;;;3.17;;
6757;SDS011;3416;53.074;8.822;2023-09-19T05:02:49;4.15;;;2.83;;
6757;SDS011;3416;53.074;8.822;2023-09-19T05:05:17;13.93;;;4.25;;
6757;SDS011;3416;53.074;8.822;2023-09-19T05:07:45;8.90;;;3.15;;
6757;SDS011;3416;53.074;8.822;2023-09-19T05:10:12;9.95;;;3.10;;
6757;SDS011;3416;53.074;8.822;2023-09-19T05:12:41;11.25;;;3.08;;
6757;SDS011;3416;53.074;8.822;2023-09-19T05:15:10;8.95;;;2.72;;
6757;SDS011;3416;53.074;8.822;2023-09-19T05:17:37;11.77;;;3.22;;
6757;SDS011;3416;53.074;8.822;2023-09-19T05:20:05;8.15;;;2.65;;
6757;SDS011;3416;53.074;8.822;2023-09-19T05:22:50;10.27;;;3.60;;
6757;SDS011;3416;53.074;8.822;2023-09-19T05:25:26;6.90;;;3.40;;
6757;SDS011;3416;53.074;8.822;2023-09-19T05:27:56;11.65;;;3.17;;
6757;SDS011;3416;53.074;8.822;2023-09-19T05:30:24;10.50;;;3.38;;
6757;SDS011;3416;53.074;8.822;2023-09-19T05:32:53;6.85;;;3.00;;
6757;SDS011;3416;53.074;8.822;2023-09-19T05:35:21;13.30;;;3.83;;
6757;SDS011;3416;53.074;8.822;2023-09-19T05:37:48;8.18;;;2.90;;
6757;SDS011;3416;53.074;8.822;2023-09-19T05:40:17;7.75;;;3.60;;
6757;SDS011;3416;53.074;8.822;2023-09-19T05:42:45;11.88;;;3.75;;
6757;SDS011;3416;53.074;8.822;2023-09-19T05:45:14;21.63;;;4.88;;
6757;SDS011;3416;53.074;8.822;2023-09-19T05:47:47;9.07;;;3.95;;
6757;SDS011;3416;53.074;8.822;2023-09-19T05:50:15;12.13;;;5.30;;
6757;SDS011;3416;53.074;8.822;2023-09-19T05:52:43;19.50;;;5.15;;
6757;SDS011;3416;53.074;8.822;2023-09-19T05:55:17;11.55;;;4.47;;
6757;SDS011;3416;53.074;8.822;2023-09-19T05:57:48;17.90;;;6.35;;
6757;SDS011;3416;53.074;8.822;2023-09-19T06:00:18;9.70;;;3.58;;
6757;SDS011;3416;53.074;8.822;2023-09-19T06:02:49;10.52;;;3.55;;
6757;SDS011;3416;53.074;8.822;2023-09-19T06:05:17;8.25;;;3.15;;
6757;SDS011;3416;53.074;8.822;2023-09-19T06:07:46;9.75;;;2.80;;
6757;SDS011;3416;53.074;8.822;2023-09-19T06:10:13;9.65;;;3.40;;
6757;SDS011;3416;53.074;8.822;2023-09-19T06:12:40;9.77;;;3.03;;
6757;SDS011;3416;53.074;8.822;2023-09-19T06:15:09;8.65;;;2.90;;
6757;SDS011;3416;53.074;8.822;2023-09-19T06:21:00;13.43;;;3.47;;
6757;SDS011;3416;53.074;8.822;2023-09-19T06:23:52;10.70;;;3.00;;
6757;SDS011;3416;53.074;8.822;2023-09-19T06:26:28;11.05;;;3.70;;
6757;SDS011;3416;53.074;8.822;2023-09-19T06:28:56;9.70;;;2.92;;
6757;SDS011;3416;53.074;8.822;2023-09-19T06:31:26;14.35;;;4.65;;
6757;SDS011;3416;53.074;8.822;2023-09-19T06:33:53;9.40;;;3.53;;
6757;SDS011;3416;53.074;8.822;2023-09-19T06:36:24;8.80;;;3.40;;
6757;SDS011;3416;53.074;8.822;2023-09-19T06:38:52;9.45;;;3.85;;
6757;SDS011;3416;53.074;8.822;2023-09-19T06:41:23;11.65;;;5.30;;
6757;SDS011;3416;53.074;8.822;2023-09-19T06:43:50;10.02;;;2.95;;
6757;SDS011;3416;53.074;8.822;2023-09-19T06:46:18;11.15;;;3.85;;
6757;SDS011;3416;53.074;8.822;2023-09-19T06:48:48;16.15;;;3.45;;
6757;SDS011;3416;53.074;8.822;2023-09-19T06:51:26;18.20;;;4.00;;
6757;SDS011;3416;53.074;8.822;2023-09-19T06:53:54;15.20;;;4.20;;
6757;SDS011;3416;53.074;8.822;2023-09-19T06:56:23;12.13;;;3.95;;
6757;SDS011;3416;53.074;8.822;2023-09-19T06:58:51;9.88;;;3.80;;
6757;SDS011;3416;53.074;8.822;2023-09-19T07:01:18;11.40;;;3.47;;
6757;SDS011;3416;53.074;8.822;2023-09-19T07:03:45;8.13;;;3.08;;
6757;SDS011;3416;53.074;8.822;2023-09-19T07:06:12;7.95;;;2.90;;
6757;SDS011;3416;53.074;8.822;2023-09-19T07:08:40;9.50;;;2.70;;
6757;SDS011;3416;53.074;8.822;2023-09-19T07:14:02;9.25;;;2.60;;
6757;SDS011;3416;53.074;8.822;2023-09-19T07:16:38;9.10;;;2.60;;
6757;SDS011;3416;53.074;8.822;2023-09-19T07:19:08;13.20;;;4.10;;
6757;SDS011;3416;53.074;8.822;2023-09-19T07:21:36;8.97;;;2.37;;
6757;SDS011;3416;53.074;8.822;2023-09-19T07:24:06;13.13;;;2.90;;
6757;SDS011;3416;53.074;8.822;2023-09-19T07:26:34;7.13;;;2.60;;
6757;SDS011;3416;53.074;8.822;2023-09-19T07:29:01;6.37;;;2.40;;
6757;SDS011;3416;53.074;8.822;2023-09-19T07:31:28;9.53;;;2.77;;
6757;SDS011;3416;53.074;8.822;2023-09-19T07:33:56;7.77;;;4.00;;
6757;SDS011;3416;53.074;8.822;2023-09-19T07:36:33;13.47;;;3.43;;
6757;SDS011;3416;53.074;8.822;2023-09-19T07:39:02;16.80;;;3.23;;
6757;SDS011;3416;53.074;8.822;2023-09-19T07:41:33;10.03;;;3.27;;
6757;SDS011;3416;53.074;8.822;2023-09-19T07:44:00;9.10;;;3.80;;
6757;SDS011;3416;53.074;8.822;2023-09-19T07:46:27;8.60;;;2.97;;
6757;SDS011;3416;53.074;8.822;2023-09-19T07:48:57;24.50;;;4.17;;
6757;SDS011;3416;53.074;8.822;2023-09-19T07:51:25;11.90;;;3.43;;
6757;SDS011;3416;53.074;8.822;2023-09-19T07:53:52;10.63;;;3.00;;
6757;SDS011;3416;53.074;8.822;2023-09-19T07:56:20;11.50;;;4.43;;
6757;SDS011;3416;53.074;8.822;2023-09-19T07:58:51;18.73;;;3.90;;
6757;SDS011;3416;53.074;8.822;2023-09-19T08:01:18;9.03;;;3.17;;
6757;SDS011;3416;53.074;8.822;2023-09-19T08:03:55;14.90;;;3.23;;
6757;SDS011;3416;53.074;8.822;2023-09-19T08:06:21;10.67;;;3.53;;
6757;SDS011;3416;53.074;8.822;2023-09-19T08:08:50;9.37;;;2.50;;
6757;SDS011;3416;53.074;8.822;2023-09-19T08:11:20;19.50;;;3.60;;
6757;SDS011;3416;53.074;8.822;2023-09-19T08:13:51;12.43;;;3.10;;
6757;SDS011;3416;53.074;8.822;2023-09-19T08:16:17;10.57;;;2.73;;
6757;SDS011;3416;53.074;8.822;2023-09-19T08:18:48;6.87;;;2.50;;
6757;SDS011;3416;53.074;8.822;2023-09-19T08:21:18;8.13;;;2.30;;
6757;SDS011;3416;53.074;8.822;2023-09-19T08:23:45;8.43;;;2.40;;
6757;SDS011;3416;53.074;8.822;2023-09-19T08:26:11;9.83;;;3.20;;
6757;SDS011;3416;53.074;8.822;2023-09-19T08:28:38;9.17;;;3.33;;
6757;SDS011;3416;53.074;8.822;2023-09-19T08:31:07;7.83;;;3.30;;
6757;SDS011;3416;53.074;8.822;2023-09-19T08:33:36;8.97;;;2.97;;
6757;SDS011;3416;53.074;8.822;2023-09-19T08:36:03;4.63;;;2.10;;
6757;SDS011;3416;53.074;8.822;2023-09-19T08:38:31;16.77;;;2.80;;
6757;SDS011;3416;53.074;8.822;2023-09-19T08:40:58;11.57;;;3.30;;
6757;SDS011;3416;53.074;8.822;2023-09-19T08:43:26;8.43;;;3.40;;
6757;SDS011;3416;53.074;8.822;2023-09-19T08:45:54;10.73;;;2.27;;
6757;SDS011;3416;53.074;8.822;2023-09-19T08:48:32;9.13;;;2.70;;
6757;SDS011;3416;53.074;8.822;2023-09-19T08:51:06;5.83;;;2.43;;
6757;SDS011;3416;53.074;8.822;2023-09-19T08:53:36;4.73;;;2.13;;
6757;SDS011;3416;53.074;8.822;2023-09-19T08:56:11;8.20;;;2.80;;
6757;SDS011;3416;53.074;8.822;2023-09-19T08:58:44;13.33;;;3.10;;
6757;SDS011;3416;53.074;8.822;2023-09-19T09:01:16;12.83;;;3.10;;
6757;SDS011;3416;53.074;8.822;2023-09-19T09:03:51;9.17;;;3.10;;
6757;SDS011;3416;53.074;8.822;2023-09-19T09:06:20;7.83;;;2.40;;
6757;SDS011;3416;53.074;8.822;2023-09-19T09:08:48;3.57;;;1.87;;
6757;SDS011;3416;53.074;8.822;2023-09-19T09:11:19;6.60;;;2.50;;
6757;SDS011;3416;53.074;8.822;2023-09-19T09:13:47;6.47;;;2.03;;
6757;SDS011;3416;53.074;8.822;2023-09-19T09:16:14;8.87;;;2.83;;
6757;SDS011;3416;53.074;8.822;2023-09-19T09:18:43;8.90;;;2.97;;
6757;SDS011;3416;53.074;8.822;2023-09-19T09:21:12;9.00;;;2.10;;
6757;SDS011;3416;53.074;8.822;2023-09-19T09:23:40;12.43;;;2.60;;
6757;SDS011;3416;53.074;8.822;2023-09-19T09:26:07;7.33;;;2.60;;
6757;SDS011;3416;53.074;8.822;2023-09-19T09:28:34;8.67;;;3.10;;
6757;SDS011;3416;53.074;8.822;2023-09-19T09:31:04;7.47;;;2.43;;
6757;SDS011;3416;53.074;8.822;2023-09-19T09:33:34;8.80;;;2.50;;
6757;SDS011;3416;53.074;8.822;2023-09-19T09:36:02;10.20;;;3.57;;
6757;SDS011;3416;53.074;8.822;2023-09-19T09:38:43;12.27;;;2.50;;
6757;SDS011;3416;53.074;8.822;2023-09-19T09:41:13;7.30;;;2.57;;
6757;SDS011;3416;53.074;8.822;2023-09-19T09:43:52;8.70;;;2.70;;
6757;SDS011;3416;53.074;8.822;2023-09-19T09:46:20;4.97;;;2.10;;
6757;SDS011;3416;53.074;8.822;2023-09-19T09:49:06;6.93;;;2.50;;
6757;SDS011;3416;53.074;8.822;2023-09-19T09:51:59;10.40;;;2.17;;
6757;SDS011;3416;53.074;8.822;2023-09-19T09:57:42;9.63;;;3.17;;
6757;SDS011;3416;53.074;8.822;2023-09-19T10:00:09;11.00;;;3.40;;
6757;SDS011;3416;53.074;8.822;2023-09-19T10:02:45;13.97;;;2.23;;
6757;SDS011;3416;53.074;8.822;2023-09-19T10:05:13;10.80;;;3.00;;
6757;SDS011;3416;53.074;8.822;2023-09-19T10:07:46;8.30;;;2.53;;
6757;SDS011;3416;53.074;8.822;2023-09-19T10:10:15;10.60;;;2.83;;
6757;SDS011;3416;53.074;8.822;2023-09-19T10:13:04;14.87;;;3.10;;
6757;SDS011;3416;53.074;8.822;2023-09-19T10:15:33;8.70;;;3.63;;
6757;SDS011;3416;53.074;8.822;2023-09-19T10:18:01;5.67;;;2.77;;
6757;SDS011;3416;53.074;8.822;2023-09-19T10:20:33;15.57;;;4.37;;
6757;SDS011;3416;53.074;8.822;2023-09-19T10:23:05;8.00;;;3.20;;
6757;SDS011;3416;53.074;8.822;2023-09-19T10:25:36;12.67;;;4.00;;
6757;SDS011;3416;53.074;8.822;2023-09-19T10:28:06;11.70;;;3.17;;
6757;SDS011;3416;53.074;8.822;2023-09-19T10:30:37;9.07;;;3.10;;
6757;SDS011;3416;53.074;8.822;2023-09-19T10:33:10;11.33;;;3.00;;
6757;SDS011;3416;53.074;8.822;2023-09-19T10:35:39;10.90;;;2.73;;
6757;SDS011;3416;53.074;8.822;2023-09-19T10:38:09;8.83;;;3.20;;
6757;SDS011;3416;53.074;8.822;2023-09-19T10:40:38;16.07;;;2.73;;
6757;SDS011;3416;53.074;8.822;2023-09-19T10:43:11;11.70;;;2.90;;
6757;SDS011;3416;53.074;8.822;2023-09-19T10:45:42;7.10;;;2.77;;
6757;SDS011;3416;53.074;8.822;2023-09-19T10:48:12;9.73;;;2.80;;
6757;SDS011;3416;53.074;8.822;2023-09-19T10:50:42;9.80;;;3.37;;
6757;SDS011;3416;53.074;8.822;2023-09-19T10:53:12;6.30;;;2.77;;
6757;SDS011;3416;53.074;8.822;2023-09-19T10:55:40;10.37;;;2.47;;
6757;SDS011;3416;53.074;8.822;2023-09-19T10:58:24;9.07;;;2.70;;
6757;SDS011;3416;53.074;8.822;2023-09-19T11:00:54;8.37;;;2.77;;
6757;SDS011;3416;53.074;8.822;2023-09-19T11:03:22;12.37;;;3.10;;
6757;SDS011;3416;53.074;8.822;2023-09-19T11:06:01;14.30;;;3.43;;
6757;SDS011;3416;53.074;8.822;2023-09-19T11:08:31;12.53;;;2.43;;
6757;SDS011;3416;53.074;8.822;2023-09-19T11:14:29;8.80;;;3.83;;
6757;SDS011;3416;53.074;8.822;2023-09-19T11:20:17;11.40;;;3.67;;
6757;SDS011;3416;53.074;8.822;2023-09-19T11:23:17;8.50;;;2.67;;
6757;SDS011;3416;53.074;8.822;2023-09-19T11:25:48;7.30;;;3.67;;
6757;SDS011;3416;53.074;8.822;2023-09-19T11:28:28;11.70;;;3.97;;
6757;SDS011;3416;53.074;8.822;2023-09-19T11:31:40;10.90;;;3.40;;
6757;SDS011;3416;53.074;8.822;2023-09-19T11:40:46;9.77;;;3.53;;
6757;SDS011;3416;53.074;8.822;2023-09-19T11:43:32;10.40;;;2.77;;
6757;SDS011;3416;53.074;8.822;2023-09-19T11:46:10;12.77;;;3.27;;
6757;SDS011;3416;53.074;8.822;2023-09-19T11:48:40;7.70;;;2.67;;
6757;SDS011;3416;53.074;8.822;2023-09-19T11:51:16;7.73;;;3.03;;
6757;SDS011;3416;53.074;8.822;2023-09-19T11:53:47;10.13;;;3.13;;
6757;SDS011;3416;53.074;8.822;2023-09-19T11:56:15;7.27;;;2.60;;
6757;SDS011;3416;53.074;8.822;2023-09-19T11:58:44;7.03;;;2.20;;
6757;SDS011;3416;53.074;8.822;2023-09-19T12:01:20;14.40;;;3.70;;
6757;SDS011;3416;53.074;8.822;2023-09-19T12:03:52;11.50;;;3.03;;
6757;SDS011;3416;53.074;8.822;2023-09-19T12:06:20;8.30;;;2.80;;
6757;SDS011;3416;53.074;8.822;2023-09-19T12:08:47;7.43;;;3.80;;
6757;SDS011;3416;53.074;8.822;2023-09-19T12:11:16;18.63;;;3.37;;
6757;SDS011;3416;53.074;8.822;2023-09-19T12:13:45;9.80;;;3.10;;
6757;SDS011;3416;53.074;8.822;2023-09-19T12:16:16;10.20;;;2.73;;
6757;SDS011;3416;53.074;8.822;2023-09-19T12:18:47;8.90;;;3.30;;
6757;SDS011;3416;53.074;8.822;2023-09-19T12:21:22;10.67;;;3.30;;
6757;SDS011;3416;53.074;8.822;2023-09-19T12:23:58;4.57;;;2.60;;
6757;SDS011;3416;53.074;8.822;2023-09-19T12:26:26;7.10;;;2.80;;
6757;SDS011;3416;53.074;8.822;2023-09-19T12:28:54;8.23;;;2.93;;
6757;SDS011;3416;53.074;8.822;2023-09-19T12:31:24;8.03;;;2.67;;
6757;SDS011;3416;53.074;8.822;2023-09-19T12:33:54;8.07;;;3.07;;
6757;SDS011;3416;53.074;8.822;2023-09-19T12:36:22;8.63;;;2.90;;
6757;SDS011;3416;53.074;8.822;2023-09-19T12:38:54;7.13;;;2.60;;
6757;SDS011;3416;53.074;8.822;2023-09-19T12:41:24;6.33;;;3.00;;
6757;SDS011;3416;53.074;8.822;2023-09-19T12:43:51;7.80;;;2.67;;
6757;SDS011;3416;53.074;8.822;2023-09-19T12:46:19;8.70;;;3.27;;
6757;SDS011;3416;53.074;8.822;2023-09-19T12:48:52;8.30;;;2.80;;
6757;SDS011;3416;53.074;8.822;2023-09-19T12:51:43;12.50;;;2.70;;
6757;SDS011;3416;53.074;8.822;2023-09-19T12:54:12;9.00;;;2.87;;
6757;SDS011;3416;53.074;8.822;2023-09-19T12:56:41;8.67;;;2.70;;
6757;SDS011;3416;53.074;8.822;2023-09-19T12:59:10;15.23;;;3.13;;
6757;SDS011;3416;53.074;8.822;2023-09-19T13:01:39;12.40;;;3.90;;
6757;SDS011;3416;53.074;8.822;2023-09-19T13:04:11;6.10;;;2.40;;
6757;SDS011;3416;53.074;8.822;2023-09-19T13:06:43;10.77;;;3.30;;
6757;SDS011;3416;53.074;8.822;2023-09-19T13:09:11;9.53;;;2.60;;
6757;SDS011;3416;53.074;8.822;2023-09-19T13:11:39;12.53;;;3.77;;
6757;SDS011;3416;53.074;8.822;2023-09-19T13:14:19;12.20;;;3.40;;
6757;SDS011;3416;53.074;8.822;2023-09-19T13:16:55;9.07;;;3.00;;
6757;SDS011;3416;53.074;8.822;2023-09-19T13:19:40;8.37;;;3.07;;
6757;SDS011;3416;53.074;8.822;2023-09-19T13:25:04;6.90;;;2.50;;
6757;SDS011;3416;53.074;8.822;2023-09-19T13:27:33;9.87;;;2.80;;
6757;SDS011;3416;53.074;8.822;2023-09-19T13:30:01;7.20;;;2.67;;
6757;SDS011;3416;53.074;8.822;2023-09-19T13:32:31;7.67;;;2.90;;
6757;SDS011;3416;53.074;8.822;2023-09-19T13:35:01;7.13;;;2.83;;
6757;SDS011;3416;53.074;8.822;2023-09-19T13:37:28;9.03;;;2.80;;
6757;SDS011;3416;53.074;8.822;2023-09-19T13:39:55;8.30;;;2.57;;
6757;SDS011;3416;53.074;8.822;2023-09-19T13:42:23;5.00;;;2.20;;
6757;SDS011;3416;53.074;8.822;2023-09-19T13:44:54;6.60;;;2.43;;
6757;SDS011;3416;53.074;8.822;2023-09-19T13:47:21;5.60;;;2.27;;
6757;SDS011;3416;53.074;8.822;2023-09-19T13:49:52;6.40;;;2.40;;
6757;SDS011;3416;53.074;8.822;2023-09-19T13:52:21;11.53;;;4.87;;
6757;SDS011;3416;53.074;8.822;2023-09-19T13:54:49;11.00;;;2.83;;
6757;SDS011;3416;53.074;8.822;2023-09-19T13:57:17;9.53;;;2.70;;
6757;SDS011;3416;53.074;8.822;2023-09-19T13:59:45;17.93;;;3.43;;
6757;SDS011;3416;53.074;8.822;2023-09-19T14:02:13;8.17;;;3.30;;
6757;SDS011;3416;53.074;8.822;2023-09-19T14:04:40;13.53;;;3.70;;
6757;SDS011;3416;53.074;8.822;2023-09-19T14:07:07;10.07;;;2.93;;
6757;SDS011;3416;53.074;8.822;2023-09-19T14:09:35;11.30;;;3.10;;
6757;SDS011;3416;53.074;8.822;2023-09-19T14:12:03;15.23;;;3.17;;
6757;SDS011;3416;53.074;8.822;2023-09-19T14:14:30;8.73;;;2.93;;
6757;SDS011;3416;53.074;8.822;2023-09-19T14:16:57;4.77;;;2.50;;
6757;SDS011;3416;53.074;8.822;2023-09-19T14:19:26;3.70;;;2.10;;
6757;SDS011;3416;53.074;8.822;2023-09-19T14:21:53;7.10;;;2.67;;
6757;SDS011;3416;53.074;8.822;2023-09-19T14:24:21;10.00;;;2.33;;
6757;SDS011;3416;53.074;8.822;2023-09-19T14:26:50;7.43;;;3.07;;
6757;SDS011;3416;53.074;8.822;2023-09-19T14:29:19;6.83;;;2.03;;
6757;SDS011;3416;53.074;8.822;2023-09-19T14:31:46;7.37;;;2.47;;
6757;SDS011;3416;53.074;8.822;2023-09-19T14:34:13;13.03;;;3.17;;
6757;SDS011;3416;53.074;8.822;2023-09-19T14:36:42;7.50;;;2.00;;
6757;SDS011;3416;53.074;8.822;2023-09-19T14:39:09;6.70;;;2.67;;
6757;SDS011;3416;53.074;8.822;2023-09-19T14:41:36;7.43;;;2.90;;
6757;SDS011;3416;53.074;8.822;2023-09-19T14:44:04;7.20;;;2.40;;
6757;SDS011;3416;53.074;8.822;2023-09-19T14:46:31;14.50;;;3.20;;
6757;SDS011;3416;53.074;8.822;2023-09-19T14:48:58;10.13;;;2.80;;
6757;SDS011;3416;53.074;8.822;2023-09-19T14:51:28;13.13;;;3.17;;
6757;SDS011;3416;53.074;8.822;2023-09-19T14:53:58;8.63;;;2.33;;
6757;SDS011;3416;53.074;8.822;2023-09-19T14:56:28;9.27;;;3.10;;
6757;SDS011;3416;53.074;8.822;2023-09-19T14:58:56;7.17;;;2.27;;
6757;SDS011;3416;53.074;8.822;2023-09-19T15:01:26;8.80;;;2.40;;
6757;SDS011;3416;53.074;8.822;2023-09-19T15:03:54;6.27;;;2.63;;
6757;SDS011;3416;53.074;8.822;2023-09-19T15:06:21;11.83;;;2.43;;
6757;SDS011;3416;53.074;8.822;2023-09-19T15:08:48;6.67;;;2.93;;
6757;SDS011;3416;53.074;8.822;2023-09-19T15:11:15;7.80;;;2.47;;
6757;SDS011;3416;53.074;8.822;2023-09-19T15:13:43;9.03;;;2.20;;
6757;SDS011;3416;53.074;8.822;2023-09-19T15:16:11;8.20;;;2.40;;
6757;SDS011;3416;53.074;8.822;2023-09-19T15:18:41;8.90;;;2.20;;
6757;SDS011;3416;53.074;8.822;2023-09-19T15:21:10;7.40;;;2.90;;
6757;SDS011;3416;53.074;8.822;2023-09-19T15:23:39;9.20;;;2.80;;
6757;SDS011;3416;53.074;8.822;2023-09-19T15:26:07;7.70;;;2.27;;
6757;SDS011;3416;53.074;8.822;2023-09-19T15:28:36;9.70;;;2.97;;
6757;SDS011;3416;53.074;8.822;2023-09-19T15:31:05;7.37;;;2.63;;
6757;SDS011;3416;53.074;8.822;2023-09-19T15:33:32;8.90;;;2.33;;
6757;SDS011;3416;53.074;8.822;2023-09-19T15:36:02;8.33;;;3.27;;
6757;SDS011;3416;53.074;8.822;2023-09-19T15:38:30;4.40;;;2.53;;
6757;SDS011;3416;53.074;8.822;2023-09-19T15:40:58;5.67;;;1.77;;
6757;SDS011;3416;53.074;8.822;2023-09-19T15:43:25;8.67;;;2.90;;
6757;SDS011;3416;53.074;8.822;2023-09-19T15:45:53;8.13;;;2.80;;
6757;SDS011;3416;53.074;8.822;2023-09-19T15:48:20;10.17;;;1.80;;
6757;SDS011;3416;53.074;8.822;2023-09-19T15:50:48;10.40;;;2.50;;
6757;SDS011;3416;53.074;8.822;2023-09-19T15:53:17;7.07;;;2.10;;
6757;SDS011;3416;53.074;8.822;2023-09-19T15:55:43;7.13;;;2.70;;